createdAt,value
2022-07-25T00:02:07.453Z,28.17
2022-07-25T00:04:35.909Z,28.11
2022-07-25T00:07:03.378Z,28.09
2022-07-25T00:09:30.346Z,27.95
2022-07-25T00:11:57.335Z,27.96
2022-07-25T00:14:24.111Z,28.01
2022-07-25T00:16:51.044Z,27.98
2022-07-25T00:19:18.281Z,28.04
2022-07-25T00:21:45.975Z,27.86
2022-07-25T00:24:12.745Z,27.86
2022-07-25T00:26:40.381Z,27.92
2022-07-25T00:29:07.719Z,27.82
2022-07-25T00:31:34.599Z,27.79
2022-07-25T00:34:01.568Z,27.76
2022-07-25T00:36:28.326Z,27.65
2022-07-25T00:38:55.064Z,27.52
2022-07-25T00:41:21.829Z,27.60
2022-07-25T00:43:48.594Z,27.52
2022-07-25T00:46:18.929Z,27.46
2022-07-25T00:48:47.449Z,27.48
2022-07-25T00:51:15.572Z,27.41
2022-07-25T00:53:42.430Z,27.38
2022-07-25T00:56:09.731Z,27.32
2022-07-25T00:58:36.852Z,27.43
2022-07-25T01:01:04.464Z,27.35
2022-07-25T01:03:31.254Z,27.38
2022-07-25T01:05:58.196Z,27.31
2022-07-25T01:08:25.641Z,27.32
2022-07-25T01:10:52.646Z,27.22
2022-07-25T01:13:19.379Z,27.14
2022-07-25T01:15:47.808Z,27.25
2022-07-25T01:18:14.792Z,27.22
2022-07-25T01:20:41.803Z,27.13
2022-07-25T01:23:08.553Z,27.11
2022-07-25T01:25:35.454Z,27.16
2022-07-25T01:28:02.153Z,27.27
2022-07-25T01:30:29.254Z,27.20
2022-07-25T01:32:56.391Z,27.27
2022-07-25T01:35:23.184Z,27.12
2022-07-25T01:37:49.955Z,26.93
2022-07-25T01:40:16.951Z,26.95
2022-07-25T01:42:44.448Z,27.00
2022-07-25T01:45:12.014Z,26.96
2022-07-25T01:47:38.855Z,27.04
2022-07-25T01:50:06.137Z,27.09
2022-07-25T01:52:32.850Z,26.87
2022-07-25T01:54:59.810Z,26.84
2022-07-25T01:57:31.069Z,26.93
2022-07-25T01:59:58.779Z,26.73
2022-07-25T02:02:25.551Z,26.85
2022-07-25T02:04:52.528Z,26.80
2022-07-25T02:07:19.568Z,26.83
2022-07-25T02:09:46.552Z,26.80
2022-07-25T02:12:14.431Z,26.80
2022-07-25T02:14:41.211Z,26.71
2022-07-25T02:17:08.263Z,26.69
2022-07-25T02:19:35.678Z,26.58
2022-07-25T02:22:03.585Z,26.61
2022-07-25T02:24:30.303Z,26.62
2022-07-25T02:26:57.051Z,26.69
2022-07-25T02:29:24.013Z,26.76
2022-07-25T02:31:51.989Z,26.64
2022-07-25T02:34:19.287Z,26.61
2022-07-25T02:36:46.305Z,26.68
2022-07-25T02:39:13.179Z,26.79
2022-07-25T02:41:40.080Z,26.79
2022-07-25T02:44:07.414Z,26.41
2022-07-25T02:46:34.504Z,26.24
2022-07-25T02:49:01.660Z,26.15
2022-07-25T02:51:28.338Z,26.54
2022-07-25T02:53:57.792Z,26.84
2022-07-25T02:56:29.829Z,26.72
2022-07-25T02:58:57.709Z,26.62
2022-07-25T03:01:25.106Z,26.56
2022-07-25T03:03:52.804Z,26.71
2022-07-25T03:06:19.566Z,26.51
2022-07-25T03:08:46.235Z,26.77
2022-07-25T03:11:13.805Z,26.66
2022-07-25T03:13:40.944Z,26.64
2022-07-25T03:16:08.212Z,26.37
2022-07-25T03:18:34.911Z,26.43
2022-07-25T03:21:01.770Z,25.92
2022-07-25T03:23:30.013Z,26.00
2022-07-25T03:25:57.080Z,26.05
2022-07-25T03:28:24.944Z,26.24
2022-07-25T03:30:53.007Z,25.91
2022-07-25T03:33:19.810Z,26.22
2022-07-25T03:35:46.895Z,26.22
2022-07-25T03:38:13.612Z,26.17
2022-07-25T03:40:40.699Z,26.35
2022-07-25T03:43:07.494Z,26.42
2022-07-25T03:45:34.314Z,26.18
2022-07-25T03:48:01.196Z,26.40
2022-07-25T03:50:28.534Z,26.02
2022-07-25T03:52:55.210Z,26.26
2022-07-25T03:55:22.007Z,26.38
2022-07-25T03:57:48.802Z,26.18
2022-07-25T04:00:15.734Z,25.81
2022-07-25T04:02:42.677Z,25.44
2022-07-25T04:05:10.211Z,26.06
2022-07-25T04:07:38.215Z,26.06
2022-07-25T04:10:05.812Z,25.84
2022-07-25T04:12:32.791Z,25.98
2022-07-25T04:14:59.617Z,26.00
2022-07-25T04:17:26.401Z,26.09
2022-07-25T04:19:53.548Z,25.71
2022-07-25T04:22:21.184Z,25.93
2022-07-25T04:24:47.972Z,25.72
2022-07-25T04:27:14.695Z,25.58
2022-07-25T04:29:42.493Z,25.99
2022-07-25T04:32:09.592Z,25.96
2022-07-25T04:34:36.359Z,25.90
2022-07-25T04:37:03.123Z,26.21
2022-07-25T04:39:30.045Z,25.85
2022-07-25T04:41:56.755Z,25.89
2022-07-25T04:44:23.515Z,26.10
2022-07-25T04:46:50.329Z,26.25
2022-07-25T04:49:17.167Z,26.38
2022-07-25T04:51:44.122Z,26.38
2022-07-25T04:54:10.884Z,26.13
2022-07-25T04:56:37.638Z,26.15
2022-07-25T04:59:06.684Z,26.59
2022-07-25T05:01:35.253Z,26.61
2022-07-25T05:04:02.228Z,26.53
2022-07-25T05:06:29.184Z,26.52
2022-07-25T05:08:56.313Z,26.85
2022-07-25T05:11:23.003Z,26.93
2022-07-25T05:13:49.882Z,26.11
2022-07-25T05:16:16.818Z,26.61
2022-07-25T05:18:43.648Z,26.79
2022-07-25T05:21:12.305Z,26.29
2022-07-25T05:23:39.665Z,26.61
2022-07-25T05:26:37.593Z,26.42
2022-07-25T05:29:04.488Z,26.20
2022-07-25T05:31:31.469Z,25.38
2022-07-25T05:33:58.763Z,26.05
2022-07-25T05:36:26.015Z,26.10
2022-07-25T05:38:52.830Z,26.08
2022-07-25T05:41:20.938Z,26.11
2022-07-25T05:43:48.791Z,26.01
2022-07-25T05:46:15.705Z,26.19
2022-07-25T05:48:43.137Z,26.17
2022-07-25T05:51:10.435Z,26.24
2022-07-25T05:53:37.311Z,26.32
2022-07-25T05:56:04.690Z,25.79
2022-07-25T05:58:31.716Z,26.04
2022-07-25T06:00:58.920Z,26.48
2022-07-25T06:03:25.789Z,26.36
2022-07-25T06:05:52.646Z,26.85
2022-07-25T06:08:19.382Z,26.81
2022-07-25T06:10:49.468Z,26.73
2022-07-25T06:13:16.193Z,26.58
2022-07-25T06:15:43.008Z,26.60
2022-07-25T06:18:09.850Z,26.66
2022-07-25T06:20:36.752Z,26.45
2022-07-25T06:23:04.957Z,26.49
2022-07-25T06:25:31.794Z,26.11
2022-07-25T06:27:58.581Z,26.21
2022-07-25T06:30:25.534Z,26.03
2022-07-25T06:32:52.430Z,26.72
2022-07-25T06:35:19.392Z,26.52
2022-07-25T06:37:47.232Z,26.21
2022-07-25T06:40:14.678Z,26.36
2022-07-25T06:42:43.537Z,25.89
2022-07-25T06:45:11.250Z,26.19
2022-07-25T06:47:39.155Z,26.72
2022-07-25T06:50:11.314Z,26.71
2022-07-25T06:52:39.103Z,26.54
2022-07-25T06:55:06.814Z,26.78
2022-07-25T06:57:33.654Z,27.66
2022-07-25T07:00:00.465Z,27.86
2022-07-25T07:02:27.697Z,29.35
2022-07-25T07:04:54.477Z,29.86
2022-07-25T07:07:21.437Z,28.80
2022-07-25T07:09:49.319Z,28.89
2022-07-25T07:12:16.033Z,28.54
2022-07-25T07:14:44.438Z,28.71
2022-07-25T07:17:11.370Z,29.26
2022-07-25T07:19:44.675Z,29.40
2022-07-25T07:22:11.737Z,30.46
2022-07-25T07:24:44.106Z,29.19
2022-07-25T07:27:12.129Z,29.69
2022-07-25T07:29:39.312Z,28.67
2022-07-25T07:32:12.296Z,29.61
2022-07-25T07:34:42.461Z,29.21
2022-07-25T07:37:09.232Z,29.27
2022-07-25T07:39:35.887Z,29.56
2022-07-25T07:42:02.725Z,29.84
2022-07-25T07:44:30.230Z,30.03
2022-07-25T07:46:59.199Z,29.63
2022-07-25T07:49:26.122Z,29.91
2022-07-25T07:51:56.214Z,30.17
2022-07-25T07:54:42.819Z,30.12
2022-07-25T07:57:15.692Z,28.78
2022-07-25T07:59:42.765Z,29.29
2022-07-25T08:02:09.589Z,28.49
2022-07-25T08:04:36.481Z,29.49
2022-07-25T08:07:03.308Z,29.46
2022-07-25T08:09:30.078Z,29.19
2022-07-25T08:11:56.797Z,29.82
2022-07-25T08:14:23.874Z,30.20
2022-07-25T08:16:53.034Z,30.04
2022-07-25T08:19:26.375Z,30.03
2022-07-25T08:22:09.282Z,30.11
2022-07-25T08:24:36.091Z,29.54
2022-07-25T08:27:02.984Z,29.63
2022-07-25T08:29:29.740Z,30.00
2022-07-25T08:31:56.518Z,30.31
2022-07-25T08:34:23.931Z,30.13
2022-07-25T08:36:50.681Z,30.60
2022-07-25T08:39:17.546Z,30.31
2022-07-25T08:41:44.546Z,30.78
2022-07-25T08:44:19.634Z,29.88
2022-07-25T08:46:46.683Z,30.05
2022-07-25T08:49:13.734Z,30.47
2022-07-25T08:51:40.990Z,29.72
2022-07-25T08:54:08.344Z,30.48
2022-07-25T08:56:35.676Z,30.17
2022-07-25T08:59:02.427Z,30.06
2022-07-25T09:01:34.586Z,30.29
2022-07-25T09:04:03.053Z,30.07
2022-07-25T09:06:33.257Z,29.89
2022-07-25T09:09:00.759Z,29.49
2022-07-25T09:11:34.322Z,30.71
2022-07-25T09:14:08.925Z,29.57
2022-07-25T09:16:40.023Z,29.22
2022-07-25T09:19:16.031Z,30.36
2022-07-25T09:21:45.652Z,30.20
2022-07-25T09:24:18.916Z,30.86
2022-07-25T09:26:46.472Z,31.04
2022-07-25T09:29:18.819Z,30.79
2022-07-25T09:31:46.339Z,30.50
2022-07-25T09:34:21.904Z,31.02
2022-07-25T09:37:04.601Z,30.90
2022-07-25T09:39:34.550Z,30.89
2022-07-25T09:42:01.568Z,30.77
2022-07-25T09:44:31.133Z,30.25
2022-07-25T09:47:03.571Z,29.81
2022-07-25T09:49:56.108Z,29.67
2022-07-25T09:52:34.104Z,30.38
2022-07-25T09:55:03.464Z,29.49
2022-07-25T09:57:30.209Z,30.07
2022-07-25T10:00:01.913Z,29.80
2022-07-25T10:03:06.523Z,30.39
2022-07-25T10:05:56.587Z,30.71
2022-07-25T10:08:24.393Z,30.32
2022-07-25T10:10:51.279Z,30.48
2022-07-25T10:13:42.635Z,30.56
2022-07-25T10:16:18.687Z,29.94
2022-07-25T10:18:57.327Z,30.24
2022-07-25T10:21:27.723Z,30.73
2022-07-25T10:24:09.726Z,31.16
2022-07-25T10:26:39.944Z,30.57
2022-07-25T10:29:11.560Z,29.72
2022-07-25T10:31:49.381Z,30.38
2022-07-25T10:34:36.410Z,29.66
2022-07-25T10:40:25.126Z,29.44
2022-07-25T10:43:22.459Z,29.43
2022-07-25T10:45:54.501Z,29.40
2022-07-25T10:48:29.532Z,28.76
2022-07-25T10:51:06.304Z,29.01
2022-07-25T10:53:38.480Z,29.71
2022-07-25T10:56:06.930Z,29.24
2022-07-25T10:58:48.476Z,29.97
2022-07-25T11:01:20.638Z,29.39
2022-07-25T11:03:51.188Z,29.38
2022-07-25T11:06:31.738Z,29.83
2022-07-25T11:09:01.135Z,30.12
2022-07-25T11:11:40.607Z,30.22
2022-07-25T11:14:15.761Z,30.14
2022-07-25T11:16:47.307Z,29.94
2022-07-25T11:19:28.594Z,29.96
2022-07-25T11:21:57.231Z,29.66
2022-07-25T11:24:36.948Z,29.31
2022-07-25T11:27:12.239Z,28.69
2022-07-25T11:29:50.977Z,28.72
2022-07-25T11:32:21.828Z,28.91
2022-07-25T11:34:54.232Z,28.67
2022-07-25T11:37:21.624Z,28.13
2022-07-25T11:39:48.846Z,28.75
2022-07-25T11:42:18.486Z,28.48
2022-07-25T11:44:50.256Z,28.51
2022-07-25T11:47:30.760Z,28.52
2022-07-25T11:50:04.997Z,27.96
2022-07-25T11:52:46.173Z,28.75
2022-07-25T11:55:33.956Z,27.90
2022-07-25T11:58:02.632Z,27.96
2022-07-25T12:00:30.171Z,27.75
2022-07-25T12:03:07.551Z,27.42
2022-07-25T12:05:34.657Z,27.70
2022-07-25T12:08:22.400Z,27.22
2022-07-25T12:10:51.826Z,27.31
2022-07-25T12:13:26.472Z,27.41
2022-07-25T12:15:53.812Z,26.34
2022-07-25T12:18:20.471Z,27.04
2022-07-25T12:20:47.251Z,27.21
2022-07-25T12:23:17.381Z,27.43
2022-07-25T12:25:46.186Z,27.59
2022-07-25T12:28:13.979Z,27.86
2022-07-25T12:30:42.757Z,28.12
2022-07-25T12:33:10.484Z,27.62
2022-07-25T12:35:39.995Z,27.76
2022-07-25T12:38:06.966Z,28.13
2022-07-25T12:40:33.938Z,28.13
2022-07-25T12:43:01.214Z,28.47
2022-07-25T12:45:28.359Z,28.23
2022-07-25T12:47:55.297Z,28.28
2022-07-25T12:50:22.164Z,28.58
2022-07-25T12:52:48.974Z,28.36
2022-07-25T12:55:18.184Z,28.45
2022-07-25T12:57:45.795Z,28.10
2022-07-25T13:00:15.698Z,28.47
2022-07-25T13:02:43.007Z,28.42
2022-07-25T13:05:23.427Z,27.01
2022-07-25T13:07:51.066Z,27.09
2022-07-25T13:10:19.067Z,27.11
2022-07-25T13:12:46.811Z,27.06
2022-07-25T13:15:13.675Z,27.38
2022-07-25T13:17:40.722Z,27.55
2022-07-25T13:20:08.530Z,28.04
2022-07-25T13:22:35.507Z,27.59
2022-07-25T13:25:08.722Z,27.56
2022-07-25T13:27:37.690Z,28.08
2022-07-25T13:30:08.547Z,27.73
2022-07-25T13:32:35.646Z,27.65
2022-07-25T13:35:02.665Z,27.98
2022-07-25T13:37:29.442Z,27.58
2022-07-25T13:39:56.197Z,27.93
2022-07-25T13:42:23.645Z,28.02
2022-07-25T13:44:50.474Z,28.43
2022-07-25T13:47:17.382Z,28.18
2022-07-25T13:49:44.479Z,28.51
2022-07-25T13:52:11.600Z,28.52
2022-07-25T13:54:38.280Z,28.42
2022-07-25T13:57:05.073Z,28.30
2022-07-25T13:59:31.953Z,28.69
2022-07-25T14:01:58.749Z,28.27
2022-07-25T14:04:25.570Z,27.46
2022-07-25T14:06:52.413Z,27.21
2022-07-25T14:09:22.482Z,27.05
2022-07-25T14:11:49.283Z,27.28
2022-07-25T14:14:16.389Z,27.62
2022-07-25T14:16:43.364Z,27.77
2022-07-25T14:19:10.882Z,27.10
2022-07-25T14:21:38.028Z,27.54
2022-07-25T14:24:05.519Z,27.85
2022-07-25T14:26:36.408Z,28.34
2022-07-25T14:29:03.540Z,28.31
2022-07-25T14:31:32.229Z,28.13
2022-07-25T14:33:59.146Z,28.11
2022-07-25T14:36:25.832Z,27.90
2022-07-25T14:38:52.792Z,27.72
2022-07-25T14:41:22.690Z,27.42
2022-07-25T14:43:49.747Z,27.89
2022-07-25T14:46:16.997Z,27.68
2022-07-25T14:48:44.053Z,28.15
2022-07-25T14:51:11.016Z,27.92
2022-07-25T14:53:37.887Z,27.37
2022-07-25T14:56:06.513Z,28.28
2022-07-25T14:58:33.619Z,27.92
2022-07-25T15:01:00.589Z,28.59
2022-07-25T15:03:27.600Z,29.15
2022-07-25T15:05:54.427Z,27.71
2022-07-25T15:08:21.210Z,28.58
2022-07-25T15:10:48.537Z,28.01
2022-07-25T15:13:32.030Z,27.87
2022-07-25T15:15:59.714Z,28.11
2022-07-25T15:18:26.700Z,28.08
2022-07-25T15:20:53.504Z,28.22
2022-07-25T15:23:21.084Z,27.48
2022-07-25T15:26:04.421Z,28.60
2022-07-25T15:28:38.038Z,28.79
2022-07-25T15:31:05.817Z,28.46
2022-07-25T15:33:32.716Z,28.52
2022-07-25T15:35:59.698Z,28.50
2022-07-25T15:38:26.915Z,28.70
2022-07-25T15:40:53.761Z,28.85
2022-07-25T15:43:21.675Z,28.46
2022-07-25T15:45:48.411Z,28.49
2022-07-25T15:48:16.355Z,28.80
2022-07-25T15:50:44.908Z,28.41
2022-07-25T15:53:12.448Z,28.50
2022-07-25T15:55:40.934Z,28.52
2022-07-25T15:58:08.406Z,28.55
2022-07-25T16:00:41.088Z,28.65
2022-07-25T16:03:14.674Z,28.57
2022-07-25T16:05:41.877Z,28.13
2022-07-25T16:08:09.984Z,28.21
2022-07-25T16:10:37.311Z,27.76
2022-07-25T16:13:04.206Z,27.46
2022-07-25T16:15:31.281Z,27.56
2022-07-25T16:18:02.557Z,28.10
2022-07-25T16:20:31.674Z,28.20
2022-07-25T16:23:02.331Z,28.15
2022-07-25T16:25:30.102Z,28.27
2022-07-25T16:27:58.469Z,28.17
2022-07-25T16:30:25.983Z,27.29
2022-07-25T16:32:52.718Z,27.49
2022-07-25T16:35:19.524Z,27.99
2022-07-25T16:37:46.396Z,28.01
2022-07-25T16:40:14.423Z,28.27
2022-07-25T16:42:41.359Z,27.64
2022-07-25T16:45:08.651Z,27.96
2022-07-25T16:47:35.466Z,27.65
2022-07-25T16:50:02.298Z,27.40
2022-07-25T16:52:29.034Z,27.57
2022-07-25T16:54:55.793Z,27.58
2022-07-25T16:57:25.045Z,27.63
2022-07-25T16:59:53.432Z,28.07
2022-07-25T17:02:23.873Z,27.90
2022-07-25T17:04:52.786Z,27.71
2022-07-25T17:07:19.637Z,28.01
2022-07-25T17:09:46.421Z,28.07
2022-07-25T17:12:13.091Z,27.40
2022-07-25T17:14:39.933Z,27.14
2022-07-25T17:17:06.669Z,27.61
2022-07-25T17:19:35.716Z,27.11
2022-07-25T17:22:02.327Z,27.72
2022-07-25T17:24:28.948Z,27.31
2022-07-25T17:26:55.671Z,27.46
2022-07-25T17:29:22.389Z,27.26
2022-07-25T17:31:49.100Z,27.24
2022-07-25T17:34:15.762Z,27.18
2022-07-25T17:36:42.982Z,27.23
2022-07-25T17:39:10.106Z,27.29
2022-07-25T17:41:37.804Z,27.17
2022-07-25T17:44:12.671Z,27.23
2022-07-25T17:46:46.294Z,27.16
2022-07-25T17:49:14.379Z,26.96
2022-07-25T17:51:41.254Z,27.35
2022-07-25T17:54:08.305Z,27.35
2022-07-25T17:56:35.430Z,27.56
2022-07-25T17:59:02.396Z,27.36
2022-07-25T18:01:29.527Z,27.41
2022-07-25T18:03:56.673Z,26.97
2022-07-25T18:06:29.241Z,27.36
2022-07-25T18:08:56.582Z,27.03
2022-07-25T18:11:23.331Z,27.43
2022-07-25T18:13:50.062Z,27.27
2022-07-25T18:16:16.923Z,26.95
2022-07-25T18:18:43.708Z,26.39
2022-07-25T18:21:10.444Z,26.38
2022-07-25T18:23:38.752Z,26.30
2022-07-25T18:26:07.175Z,26.13
2022-07-25T18:28:34.024Z,26.66
2022-07-25T18:31:00.843Z,27.02
2022-07-25T18:33:27.613Z,26.44
2022-07-25T18:35:54.551Z,26.93
2022-07-25T18:38:21.357Z,26.21
2022-07-25T18:40:49.581Z,26.13
2022-07-25T18:43:21.154Z,26.16
2022-07-25T18:45:48.036Z,26.02
2022-07-25T18:48:18.322Z,25.89
2022-07-25T18:50:45.059Z,26.01
2022-07-25T18:53:11.934Z,26.10
2022-07-25T18:55:38.893Z,26.55
2022-07-25T18:58:05.763Z,26.56
2022-07-25T19:00:32.609Z,26.29
2022-07-25T19:03:05.420Z,26.23
2022-07-25T19:05:36.759Z,26.30
2022-07-25T19:08:05.728Z,25.49
2022-07-25T19:10:35.653Z,25.77
2022-07-25T19:13:02.476Z,25.72
2022-07-25T19:15:29.481Z,26.09
2022-07-25T19:17:56.403Z,25.85
2022-07-25T19:20:23.754Z,25.95
2022-07-25T19:22:50.510Z,26.32
2022-07-25T19:25:17.339Z,26.00
2022-07-25T19:27:44.287Z,26.64
2022-07-25T19:30:17.005Z,26.28
2022-07-25T19:32:45.202Z,26.15
2022-07-25T19:35:12.076Z,26.21
2022-07-25T19:37:39.399Z,25.95
2022-07-25T19:40:06.917Z,26.41
2022-07-25T19:42:34.904Z,25.49
2022-07-25T19:45:01.942Z,25.83
2022-07-25T19:47:29.137Z,26.04
2022-07-25T19:49:55.995Z,25.63
2022-07-25T19:52:22.732Z,26.29
2022-07-25T19:54:49.523Z,26.43
2022-07-25T19:57:16.313Z,26.28
2022-07-25T19:59:43.114Z,25.79
2022-07-25T20:02:10.761Z,26.01
2022-07-25T20:04:37.623Z,25.44
2022-07-25T20:07:04.514Z,25.73
2022-07-25T20:09:31.364Z,25.51
2022-07-25T20:11:58.178Z,25.47
2022-07-25T20:14:24.989Z,24.93
2022-07-25T20:16:52.021Z,25.33
2022-07-25T20:19:18.946Z,25.07
2022-07-25T20:21:45.833Z,25.24
2022-07-25T20:24:21.793Z,24.88
2022-07-25T20:26:51.155Z,24.86
2022-07-25T20:29:17.914Z,24.84
2022-07-25T20:31:45.106Z,25.22
2022-07-25T20:34:13.003Z,25.20
2022-07-25T20:36:40.009Z,25.11
2022-07-25T20:39:07.438Z,25.47
2022-07-25T20:41:39.026Z,25.70
2022-07-25T20:44:06.306Z,25.90
2022-07-25T20:46:36.369Z,25.67
2022-07-25T20:49:04.441Z,24.74
2022-07-25T20:51:31.441Z,24.94
2022-07-25T20:53:58.291Z,25.18
2022-07-25T20:56:25.521Z,25.10
2022-07-25T20:58:52.287Z,25.30
2022-07-25T21:01:19.291Z,25.09
2022-07-25T21:03:46.321Z,24.66
2022-07-25T21:06:13.208Z,25.23
2022-07-25T21:08:40.008Z,24.68
2022-07-25T21:11:07.010Z,24.88
2022-07-25T21:13:33.925Z,25.38
2022-07-25T21:16:00.702Z,24.97
2022-07-25T21:18:27.481Z,24.39
2022-07-25T21:20:54.368Z,24.29
2022-07-25T21:23:21.174Z,24.46
2022-07-25T21:25:48.866Z,24.61
2022-07-25T21:28:15.637Z,24.33
2022-07-25T21:30:46.977Z,24.34
2022-07-25T21:33:14.718Z,24.16
2022-07-25T21:35:53.176Z,24.79
2022-07-25T21:38:26.034Z,24.77
2022-07-25T21:41:02.823Z,24.77
2022-07-25T21:43:30.359Z,24.45
2022-07-25T21:45:57.178Z,24.93
2022-07-25T21:48:44.017Z,25.11
2022-07-25T21:51:14.069Z,25.24
2022-07-25T21:53:51.024Z,24.81
2022-07-25T21:56:17.751Z,24.87
2022-07-25T21:58:44.916Z,24.26
2022-07-25T22:01:11.838Z,24.02
2022-07-25T22:03:40.418Z,25.03
2022-07-25T22:06:08.311Z,24.86
2022-07-25T22:08:35.057Z,24.31
2022-07-25T22:11:15.961Z,24.35
2022-07-25T22:13:48.997Z,24.34
2022-07-25T22:16:16.581Z,24.47
2022-07-25T22:18:43.361Z,24.45
2022-07-25T22:21:10.979Z,24.12
2022-07-25T22:23:43.325Z,24.53
2022-07-25T22:26:10.091Z,24.83
2022-07-25T22:28:36.854Z,23.81
2022-07-25T22:31:03.609Z,24.20
2022-07-25T22:33:31.087Z,23.63
2022-07-25T22:35:57.796Z,23.95
2022-07-25T22:38:24.488Z,23.93
2022-07-25T22:40:51.310Z,24.14
2022-07-25T22:43:17.989Z,23.98
2022-07-25T22:45:45.960Z,23.93
2022-07-25T22:48:12.725Z,23.68
2022-07-25T22:50:39.626Z,23.94
2022-07-25T22:53:06.714Z,23.52
2022-07-25T22:55:33.504Z,24.27
2022-07-25T22:58:00.225Z,23.61
2022-07-25T23:00:27.075Z,23.87
2022-07-25T23:02:53.940Z,23.53
2022-07-25T23:05:21.419Z,23.74
2022-07-25T23:07:51.352Z,23.08
2022-07-25T23:10:25.935Z,23.12
2022-07-25T23:12:52.716Z,23.68
2022-07-25T23:15:19.358Z,23.45
2022-07-25T23:17:46.008Z,22.94
2022-07-25T23:20:12.822Z,22.98
2022-07-25T23:22:39.492Z,22.82
2022-07-25T23:25:07.229Z,23.14
2022-07-25T23:27:35.011Z,23.35
2022-07-25T23:30:04.788Z,22.89
2022-07-25T23:32:31.487Z,23.18
2022-07-25T23:34:58.334Z,22.93
2022-07-25T23:37:25.033Z,23.17
2022-07-25T23:39:51.890Z,22.72
2022-07-25T23:42:18.591Z,23.00
2022-07-25T23:44:45.409Z,23.16
2022-07-25T23:47:13.748Z,23.17
2022-07-25T23:49:40.599Z,23.63
2022-07-25T23:52:07.400Z,23.47
2022-07-25T23:54:35.036Z,23.15
2022-07-25T23:57:02.173Z,22.77
2022-07-25T23:59:28.916Z,22.59
